Normandie — FNNO — position and weather

sailwx.info

Track history (hours):
 
Tides and Currents Weather Stations Pressure Air Temp Water Temp Dewpoint Dewpoint Depression Visibility Wind Speed Wind Dir Waves Ship Positions

Normandie

Operator: Brittany Ferries

Last reported at 2018-Feb-25 07:30 UTC. Time now 2018-Feb-25 07:50 UTC.
Position N 49°18' W 000°15'.

Length 161 m; beam 27 m.

Type: Passenger vessel. MMSI: 227273000.

Date/timePositionNaut miles runAvg speedWind from/ knotsBaromVisibWave heightAir tempDewpointWater temp
2018-Feb-25 07:30N 49°18' W 000°15'1 1.3
2018-Feb-25 07:00N 49°17' W 000°15'0 0.0
2018-Feb-25 06:30N 49°17' W 000°15'0 0.0
2018-Feb-25 06:00N 49°17' W 000°15'0 0.2
2018-Feb-25 05:30N 49°17' W 000°15'713.4
2018-Feb-25 05:00N 49°24' W 000°15'715.0
2018-Feb-25 04:31N 49°31' W 000°19'714.9
2018-Feb-25 04:01N 49°38' W 000°23'815.0
2018-Feb-25 03:30N 49°45' W 000°27'611.6
2018-Feb-25 03:00N 49°51' W 000°30'713.0
2018-Feb-25 02:30N 49°57' W 000°33'815.5
2018-Feb-25 02:00N 50°04' W 000°38'3614.9
2018-Feb-24 23:37N 50°37' W 000°58'214.7
2018-Feb-24 23:30N 50°39' W 000°58'713.7
2018-Feb-24 23:00N 50°44' W 001°05'4 8.9
2018-Feb-24 22:31N 50°49' W 001°06'0 0.0
2018-Feb-24 22:00N 50°49' W 001°06'0 0.0
2018-Feb-24 21:30N 50°49' W 001°06'0 0.2
2018-Feb-24 21:00N 50°49' W 001°06'510.3
2018-Feb-24 20:31N 50°44' W 001°04'917.4
2018-Feb-24 20:00N 50°36' W 000°57'1018.5
2018-Feb-24 19:28N 50°27' W 000°51'2418.3
2018-Feb-24 18:09N 50°04' W 000°41'318.9
2018-Feb-24 18:00N 50°01' W 000°39'1019.1
2018-Feb-24 17:30N 49°52' W 000°33'919.0
2018-Feb-24 17:00N 49°43' W 000°28'918.7
2018-Feb-24 16:30N 49°35' W 000°22'918.8
2018-Feb-24 16:00N 49°26' W 000°17'917.1
2018-Feb-24 15:30N 49°18' W 000°15'0 0.5
2018-Feb-24 15:00N 49°17' W 000°15'0 0.0
2018-Feb-24 14:31N 49°17' W 000°15'0 0.0
2018-Feb-24 14:00N 49°17' W 000°15'4 8.8
2018-Feb-24 13:31N 49°22' W 000°14'918.0
2018-Feb-24 13:01N 49°31' W 000°16'918.1
2018-Feb-24 12:30N 49°39' W 000°22'918.2
2018-Feb-24 12:00N 49°48' W 000°26'918.5
2018-Feb-24 11:30N 49°56' W 000°31'918.7
2018-Feb-24 11:00N 50°05' W 000°38'3018.5
2018-Feb-24 09:23N 50°33' W 000°54'718.7
2018-Feb-24 09:01N 50°40' W 000°58'917.1
2018-Feb-24 08:30N 50°46' W 001°06'2 4.4
2018-Feb-24 08:00N 50°49' W 001°06'0 0.0
2018-Feb-24 07:31N 50°49' W 001°06'0 0.0
2018-Feb-24 07:00N 50°49' W 001°06'0 0.2
2018-Feb-24 06:30N 50°49' W 001°06'4 8.8
2018-Feb-24 06:01N 50°44' W 001°04'817.0
2018-Feb-24 05:31N 50°37' W 000°58'714.5
2018-Feb-24 05:00N 50°30' W 000°55'3111.5
2018-Feb-24 02:17N 50°01' W 000°37'310.3
2018-Feb-24 02:00N 49°58' W 000°35'510.7
2018-Feb-24 01:30N 49°53' W 000°32'510.6
2018-Feb-24 01:00N 49°48' W 000°30'510.6
2018-Feb-24 00:30N 49°43' W 000°28'511.0
2018-Feb-24 00:00N 49°37' W 000°26'511.0
2018-Feb-23 23:30N 49°32' W 000°24'510.3
2018-Feb-23 23:00N 49°28' W 000°19'611.4
2018-Feb-23 22:30N 49°23' W 000°16'510.8
2018-Feb-23 22:00N 49°17' W 000°15'0 0.1
2018-Feb-23 21:30N 49°17' W 000°15'0 0.0
2018-Feb-23 21:00N 49°17' W 000°15'0 0.0
2018-Feb-23 20:30N 49°17' W 000°15'0 0.0
2018-Feb-23 20:00N 49°17' W 000°15'0 0.0
2018-Feb-23 19:30N 49°17' W 000°15'0 0.0
2018-Feb-23 19:00N 49°17' W 000°15'0 0.0
2018-Feb-23 18:30N 49°17' W 000°15'0 0.0
2018-Feb-23 18:00N 49°17' W 000°15'0 0.0
2018-Feb-23 17:30N 49°17' W 000°15'0 0.0
2018-Feb-23 17:00N 49°17' W 000°15'0 0.0
2018-Feb-23 16:30N 49°17' W 000°15'0 0.0
2018-Feb-23 16:01N 49°17' W 000°15'0 0.0
2018-Feb-23 15:30N 49°17' W 000°15'0 0.0
2018-Feb-23 15:01N 49°17' W 000°15'0 0.0
2018-Feb-23 14:30N 49°17' W 000°15'0 0.0
2018-Feb-23 14:01N 49°17' W 000°15'5 9.6
2018-Feb-23 13:30N 49°22' W 000°14'918.2
2018-Feb-23 13:00N 49°31' W 000°18'918.2
2018-Feb-23 12:31N 49°39' W 000°23'918.3
2018-Feb-23 12:00N 49°48' W 000°27'918.2
2018-Feb-23 11:30N 49°57' W 000°32'918.4
2018-Feb-23 11:00N 50°05' W 000°37'3018.4
2018-Feb-23 09:23N 50°33' W 000°55'718.6
2018-Feb-23 09:00N 50°40' W 000°58'816.7
2018-Feb-23 08:30N 50°46' W 001°06'2 4.5
2018-Feb-23 08:00N 50°49' W 001°06'0 0.0
2018-Feb-23 07:30N 50°49' W 001°06'0 0.0
2018-Feb-23 07:01N 50°49' W 001°06'0 0.2
2018-Feb-23 06:30N 50°49' W 001°06'510.2
2018-Feb-23 06:00N 50°44' W 001°03'816.7
2018-Feb-23 05:30N 50°36' W 000°58'715.0
2018-Feb-23 05:01N 50°29' W 000°56'2415.3
2018-Feb-23 03:27N 50°06' W 000°43'1115.2
2018-Feb-23 02:43N 49°57' W 000°34'314.9
2018-Feb-23 02:30N 49°54' W 000°31'611.0
2018-Feb-23 02:00N 49°49' W 000°28'611.1
2018-Feb-23 01:30N 49°44' W 000°25'611.3
2018-Feb-23 01:00N 49°39' W 000°23'611.9
2018-Feb-23 00:30N 49°33' W 000°21'611.4
2018-Feb-23 00:00N 49°27' W 000°18'611.3
2018-Feb-22 23:30N 49°22' W 000°15'5 9.2
2018-Feb-22 23:00N 49°17' W 000°15'0 0.0
2018-Feb-22 22:30N 49°17' W 000°15'0 0.0
2018-Feb-22 22:00N 49°17' W 000°15'0 0.3
2018-Feb-22 21:30N 49°17' W 000°15'816.4
2018-Feb-22 21:01N 49°25' W 000°16'1019.0
2018-Feb-22 20:30N 49°34' W 000°21'918.9
2018-Feb-22 20:00N 49°43' W 000°27'918.6
2018-Feb-22 19:30N 49°52' W 000°32'918.9
2018-Feb-22 19:00N 50°01' W 000°37'3419.2
2018-Feb-22 17:14N 50°33' W 000°56'419.4
2018-Feb-22 17:00N 50°37' W 000°58'917.7
2018-Feb-22 16:30N 50°44' W 001°05'4 8.5
2018-Feb-22 16:00N 50°49' W 001°06'0 0.0
2018-Feb-22 15:31N 50°49' W 001°06'0 0.0
2018-Feb-22 15:01N 50°49' W 001°06'2 4.2
2018-Feb-22 14:31N 50°47' W 001°06'917.3
2018-Feb-22 14:00N 50°39' W 000°59'3419.1
2018-Feb-22 12:15N 50°08' W 000°38'519.2
2018-Feb-22 12:01N 50°04' W 000°36'919.0
2018-Feb-22 11:31N 49°55' W 000°32'1019.5
2018-Feb-22 11:00N 49°45' W 000°27'1019.3
2018-Feb-22 10:30N 49°36' W 000°22'1019.2
2018-Feb-22 10:00N 49°27' W 000°17'917.8
2018-Feb-22 09:30N 49°19' W 000°15'1 2.5
2018-Feb-22 09:00N 49°17' W 000°15'0 0.0
2018-Feb-22 08:30N 49°17' W 000°15'0 0.0
2018-Feb-22 08:00N 49°17' W 000°15'0 0.0
2018-Feb-22 07:30N 49°17' W 000°15'0 0.1
2018-Feb-22 07:00N 49°17' W 000°15'0 0.0
2018-Feb-22 06:30N 49°17' W 000°15'0 0.0
2018-Feb-22 06:00N 49°17' W 000°15'0 0.3
2018-Feb-22 05:31N 49°17' W 000°15'713.5
2018-Feb-22 05:00N 49°24' W 000°16'815.0
2018-Feb-22 04:30N 49°31' W 000°21'715.0
2018-Feb-22 04:00N 49°38' W 000°25'714.6
2018-Feb-22 03:30N 49°45' W 000°28'714.7
2018-Feb-22 03:00N 49°52' W 000°31'714.7
2018-Feb-22 02:30N 49°59' W 000°34'4115.2
2018-Feb-21 23:49N 50°37' W 000°58'414.5
2018-Feb-21 23:30N 50°41' W 000°58'815.3
2018-Feb-21 23:00N 50°47' W 001°06'2 3.4
2018-Feb-21 22:31N 50°49' W 001°06'0 0.0
2018-Feb-21 22:00N 50°49' W 001°06'0 0.0
2018-Feb-21 21:30N 50°49' W 001°06'1 1.9
2018-Feb-21 21:00N 50°48' W 001°07'714.5
2018-Feb-21 20:31N 50°43' W 000°59'917.8
2018-Feb-21 20:00N 50°34' W 000°57'3519.0
2018-Feb-21 18:10N 50°01' W 000°40'319.6
2018-Feb-21 18:00N 49°58' W 000°38'1019.7
2018-Feb-21 17:30N 49°49' W 000°30'1019.3
2018-Feb-21 17:00N 49°40' W 000°25'918.9
2018-Feb-21 16:30N 49°31' W 000°20'918.8
2018-Feb-21 16:00N 49°22' W 000°15'5 9.9
2018-Feb-21 15:31N 49°17' W 000°15'0 0.0
2018-Feb-21 15:01N 49°17' W 000°15'0 0.0
2018-Feb-21 14:30N 49°17' W 000°15'0 0.0
2018-Feb-21 14:00N 49°17' W 000°15'1 1.5
2018-Feb-21 13:30N 49°18' W 000°15'1019.6
2018-Feb-21 13:00N 49°28' W 000°14'1019.1
2018-Feb-21 12:31N 49°37' W 000°20'918.8
2018-Feb-21 12:01N 49°45' W 000°25'1019.1
2018-Feb-21 11:30N 49°54' W 000°31'1019.0
2018-Feb-21 11:00N 50°03' W 000°37'3219.2
2018-Feb-21 09:21N 50°32' W 000°57'618.1
2018-Feb-21 09:00N 50°38' W 000°58'815.9
2018-Feb-21 08:30N 50°45' W 001°05'4 7.7
2018-Feb-21 08:00N 50°49' W 001°06'0 0.0
2018-Feb-21 07:30N 50°49' W 001°06'0 0.0
2018-Feb-21 07:00N 50°49' W 001°06'0 0.5
2018-Feb-21 06:31N 50°49' W 001°06'510.7
2018-Feb-21 06:00N 50°44' W 001°03'715.0
2018-Feb-21 05:30N 50°37' W 000°58'814.6
2018-Feb-21 04:57N 50°29' W 000°55'2014.4
2018-Feb-21 03:36N 50°10' W 000°47'613.6
2018-Feb-21 03:09N 50°06' W 000°41'210.7
2018-Feb-21 03:00N 50°04' W 000°40'510.7
2018-Feb-21 02:30N 49°60' W 000°36'510.4
2018-Feb-21 02:00N 49°55' W 000°33'510.3
2018-Feb-21 01:30N 49°50' W 000°30'510.1
2018-Feb-21 01:00N 49°45' W 000°28'5 9.9
2018-Feb-21 00:30N 49°40' W 000°25'5 9.9
2018-Feb-21 00:00N 49°36' W 000°23'5 9.6
2018-Feb-20 23:30N 49°31' W 000°20'5 9.5
2018-Feb-20 23:00N 49°27' W 000°18'5 9.3
2018-Feb-20 22:31N 49°22' W 000°15'5 9.7
2018-Feb-20 22:00N 49°18' W 000°15'0 0.4
2018-Feb-20 21:30N 49°17' W 000°15'0 0.0
2018-Feb-20 21:00N 49°17' W 000°15'0 0.0
2018-Feb-20 20:30N 49°17' W 000°15'510.4
2018-Feb-20 20:00N 49°22' W 000°14'1019.3
2018-Feb-20 19:31N 49°31' W 000°20'1019.5
2018-Feb-20 19:01N 49°40' W 000°25'1019.3
2018-Feb-20 18:31N 49°49' W 000°31'918.6
2018-Feb-20 18:00N 49°58' W 000°35'917.9
2018-Feb-20 17:30N 50°07' W 000°39'2717.9
2018-Feb-20 15:59N 50°32' W 000°54'817.8
2018-Feb-20 15:30N 50°40' W 000°60'816.4
2018-Feb-20 15:01N 50°47' W 001°06'2 3.3
2018-Feb-20 14:30N 50°49' W 001°06'0 0.0
2018-Feb-20 14:00N 50°49' W 001°06'0 0.0
2018-Feb-20 13:31N 50°49' W 001°06'1 1.7
2018-Feb-20 13:01N 50°48' W 001°07'815.3
2018-Feb-20 12:30N 50°42' W 001°01'918.8
2018-Feb-20 12:01N 50°33' W 000°55'2618.4
2018-Feb-20 10:34N 50°08' W 000°40'118.4
2018-Feb-20 10:30N 50°07' W 000°39'917.9
2018-Feb-20 10:01N 49°59' W 000°35'918.3
2018-Feb-20 09:30N 49°50' W 000°32'918.4
2018-Feb-20 09:00N 49°41' W 000°28'918.9
2018-Feb-20 08:31N 49°32' W 000°24'1019.5
2018-Feb-20 08:00N 49°24' W 000°15'612.9
2018-Feb-20 07:31N 49°17' W 000°15'0 0.1
2018-Feb-20 07:01N 49°17' W 000°15'0 0.0
2018-Feb-20 06:31N 49°17' W 000°15'0 0.0
2018-Feb-20 06:00N 49°17' W 000°15'0 0.6
2018-Feb-20 05:31N 49°18' W 000°15'714.9
2018-Feb-20 05:01N 49°25' W 000°16'815.7
2018-Feb-20 04:31N 49°33' W 000°19'815.2
2018-Feb-20 04:00N 49°39' W 000°25'815.3
2018-Feb-20 03:30N 49°46' W 000°29'815.1
2018-Feb-20 03:00N 49°53' W 000°34'714.7
2018-Feb-20 02:31N 50°00' W 000°38'815.1
2018-Feb-20 02:00N 50°07' W 000°42'2715.2
2018-Feb-20 00:12N 50°33' W 000°55'315.3
2018-Feb-20 00:00N 50°36' W 000°57'714.7
2018-Feb-19 23:30N 50°43' W 001°02'612.3
2018-Feb-19 23:00N 50°48' W 001°07'1 1.7
2018-Feb-19 22:31N 50°49' W 001°06'0 0.0
2018-Feb-19 22:00N 50°49' W 001°06'0 0.0
2018-Feb-19 21:31N 50°49' W 001°06'1 2.2
2018-Feb-19 21:01N 50°48' W 001°07'611.9
2018-Feb-19 20:30N 50°43' W 001°01'816.5
2018-Feb-19 20:00N 50°36' W 000°55'918.0
2018-Feb-19 19:30N 50°27' W 000°51'2018.0
2018-Feb-19 18:23N 50°08' W 000°42'718.4
2018-Feb-19 18:00N 50°01' W 000°38'918.7
2018-Feb-19 17:30N 49°53' W 000°33'918.5
2018-Feb-19 17:00N 49°44' W 000°28'918.8
2018-Feb-19 16:30N 49°35' W 000°23'918.9
2018-Feb-19 16:00N 49°27' W 000°17'917.5
2018-Feb-19 15:30N 49°18' W 000°15'1 1.2
2018-Feb-19 15:00N 49°17' W 000°15'0 0.0
2018-Feb-19 14:30N 49°17' W 000°15'0 0.0
2018-Feb-19 14:00N 49°17' W 000°15'4 9.0
2018-Feb-19 13:30N 49°22' W 000°14'918.2
2018-Feb-19 13:00N 49°30' W 000°19'918.4
2018-Feb-19 12:31N 49°39' W 000°23'816.8
2018-Feb-19 12:01N 49°47' W 000°27'917.1
2018-Feb-19 11:30N 49°55' W 000°32'918.3
2018-Feb-19 11:00N 50°04' W 000°37'2518.9
2018-Feb-19 09:40N 50°27' W 000°53'319.0
2018-Feb-19 09:30N 50°30' W 000°54'918.2
2018-Feb-19 09:01N 50°39' W 000°58'917.2
2018-Feb-19 08:30N 50°46' W 001°05'3 5.5
2018-Feb-19 08:00N 50°49' W 001°06'0 0.0
2018-Feb-19 07:30N 50°49' W 001°06'0 0.0
2018-Feb-19 07:00N 50°49' W 001°06'1 1.7
2018-Feb-19 06:30N 50°48' W 001°07'713.2
2018-Feb-19 06:01N 50°43' W 001°00'713.1
2018-Feb-19 05:30N 50°37' W 000°58'612.2
2018-Feb-19 05:00N 50°31' W 000°56'2311.5
2018-Feb-19 02:58N 50°08' W 000°46'811.8
2018-Feb-19 02:17N 50°01' W 000°39'311.6
2018-Feb-19 02:00N 49°58' W 000°37'611.5
2018-Feb-19 01:30N 49°53' W 000°34'611.2
2018-Feb-19 01:00N 49°48' W 000°30'511.0
2018-Feb-19 00:30N 49°43' W 000°27'611.1
2018-Feb-19 00:00N 49°38' W 000°23'611.3
2018-Feb-18 23:30N 49°33' W 000°20'510.9
2018-Feb-18 23:00N 49°27' W 000°18'510.8
2018-Feb-18 22:30N 49°22' W 000°15'5 9.8
2018-Feb-18 22:00N 49°17' W 000°15'0 0.1
2018-Feb-18 21:30N 49°17' W 000°15'0 0.0
2018-Feb-18 21:00N 49°17' W 000°15'0 0.0
2018-Feb-18 20:30N 49°17' W 000°15'5 9.6
2018-Feb-18 20:00N 49°22' W 000°14'918.5
2018-Feb-18 19:31N 49°31' W 000°19'918.1
2018-Feb-18 19:00N 49°39' W 000°25'918.1
2018-Feb-18 18:30N 49°47' W 000°31'917.9
2018-Feb-18 18:01N 49°56' W 000°36'917.6
2018-Feb-18 17:30N 50°04' W 000°40'3017.8
2018-Feb-18 15:49N 50°33' W 000°56'618.1
2018-Feb-18 15:29N 50°38' W 000°59'817.5
2018-Feb-18 15:01N 50°45' W 001°05'3 6.7
2018-Feb-18 14:30N 50°49' W 001°06'0 0.0
2018-Feb-18 14:00N 50°49' W 001°06'0 0.0
2018-Feb-18 13:30N 50°49' W 001°06'2 3.5
2018-Feb-18 13:01N 50°47' W 001°06'917.6
2018-Feb-18 12:30N 50°39' W 001°00'1019.9
2018-Feb-18 12:01N 50°30' W 000°54'3019.7
2018-Feb-18 10:28N 50°02' W 000°36'919.2
2018-Feb-18 10:00N 49°53' W 000°32'1019.1
2018-Feb-18 09:31N 49°45' W 000°26'1019.1
2018-Feb-18 09:00N 49°36' W 000°20'1019.4
2018-Feb-18 08:31N 49°26' W 000°17'917.3
2018-Feb-18 08:01N 49°18' W 000°15'1 1.0
2018-Feb-18 07:31N 49°17' W 000°15'0 0.0
2018-Feb-18 07:01N 49°17' W 000°15'0 0.0
2018-Feb-18 06:31N 49°17' W 000°15'0 0.0
2018-Feb-18 06:00N 49°17' W 000°15'1 1.2
2018-Feb-18 05:31N 49°18' W 000°15'815.5
2018-Feb-18 05:00N 49°26' W 000°15'816.6
2018-Feb-18 04:30N 49°33' W 000°20'815.6
2018-Feb-18 04:00N 49°40' W 000°25'714.8
2018-Feb-18 03:30N 49°47' W 000°30'714.6
2018-Feb-18 03:00N 49°54' W 000°35'714.3
2018-Feb-18 02:31N 50°00' W 000°39'1114.8
2018-Feb-18 01:46N 50°11' W 000°42'2315.1
2018-Feb-18 00:13N 50°33' W 000°55'415.0
2018-Feb-17 23:58N 50°36' W 000°57'714.6
2018-Feb-17 23:30N 50°43' W 001°01'612.6
2018-Feb-17 23:01N 50°48' W 001°07'1 2.1
2018-Feb-17 22:30N 50°49' W 001°06'0 0.0
2018-Feb-17 22:01N 50°49' W 001°06'0 0.0
2018-Feb-17 21:30N 50°49' W 001°06'1 2.5
2018-Feb-17 21:00N 50°48' W 001°07'714.2
2018-Feb-17 20:30N 50°42' W 001°00'1019.1
2018-Feb-17 20:00N 50°33' W 000°57'2819.1
2018-Feb-17 18:32N 50°06' W 000°43'418.6
2018-Feb-17 18:20N 50°02' W 000°40'618.8
2018-Feb-17 18:01N 49°57' W 000°37'918.8
2018-Feb-17 17:31N 49°48' W 000°32'1019.1
2018-Feb-17 17:01N 49°39' W 000°27'1019.1
2018-Feb-17 16:30N 49°30' W 000°20'918.8
2018-Feb-17 16:00N 49°22' W 000°15'4 8.7
2018-Feb-17 15:30N 49°17' W 000°15'0 0.0
2018-Feb-17 15:00N 49°17' W 000°15'0 0.0
2018-Feb-17 14:30N 49°17' W 000°15'0 0.0
2018-Feb-17 14:00N 49°17' W 000°15'510.7
2018-Feb-17 13:30N 49°23' W 000°14'1019.5
2018-Feb-17 13:00N 49°31' W 000°21'1019.9
2018-Feb-17 12:30N 49°41' W 000°24'1020.2
2018-Feb-17 12:00N 49°51' W 000°29'1020.2
2018-Feb-17 11:30N 50°00' W 000°34'2420.2
2018-Feb-17 10:19N 50°23' W 000°46'720.4
2018-Feb-17 09:59N 50°29' W 000°51'1020.3
2018-Feb-17 09:30N 50°38' W 000°58'918.0
2018-Feb-17 09:00N 50°45' W 001°05'3 6.8
2018-Feb-17 08:30N 50°49' W 001°06'0 0.0
2018-Feb-17 08:00N 50°49' W 001°06'0 0.0
2018-Feb-17 07:30N 50°49' W 001°06'0 0.0
2018-Feb-17 07:00N 50°49' W 001°06'1 1.6
2018-Feb-17 06:30N 50°48' W 001°07'713.6
2018-Feb-17 06:01N 50°43' W 001°00'713.3
2018-Feb-17 05:30N 50°37' W 000°58'510.8
2018-Feb-17 05:00N 50°31' W 000°55'3411.0
2018-Feb-17 01:57N 49°59' W 000°40'511.0
2018-Feb-17 01:31N 49°55' W 000°37'611.9
2018-Feb-17 01:00N 49°49' W 000°34'611.6
2018-Feb-17 00:30N 49°44' W 000°30'611.3
2018-Feb-17 00:01N 49°39' W 000°26'611.2
2018-Feb-16 23:30N 49°34' W 000°22'611.2
2018-Feb-16 23:01N 49°29' W 000°19'611.0
2018-Feb-16 22:31N 49°24' W 000°16'611.3
2018-Feb-16 22:00N 49°18' W 000°15'1 1.2
2018-Feb-16 21:31N 49°17' W 000°15'0 0.0
2018-Feb-16 21:01N 49°17' W 000°15'0 0.0
2018-Feb-16 20:31N 49°17' W 000°15'0 0.0
2018-Feb-16 20:01N 49°17' W 000°15'0 0.0
2018-Feb-16 19:31N 49°17' W 000°15'0 0.0
2018-Feb-16 19:01N 49°17' W 000°15'0 0.0
2018-Feb-16 18:31N 49°17' W 000°15'0 0.0
2018-Feb-16 18:01N 49°17' W 000°15'0 0.0
2018-Feb-16 17:30N 49°17' W 000°15'0 0.0
2018-Feb-16 17:00N 49°17' W 000°15'0 0.0
2018-Feb-16 16:30N 49°17' W 000°15'0 0.0
2018-Feb-16 16:00N 49°17' W 000°15'0 0.0
2018-Feb-16 15:31N 49°17' W 000°15'0 0.0
2018-Feb-16 15:00N 49°17' W 000°15'0 0.0
2018-Feb-16 14:31N 49°17' W 000°15'0 0.0
2018-Feb-16 14:00N 49°17' W 000°15'5 9.7
2018-Feb-16 13:31N 49°22' W 000°14'917.8
2018-Feb-16 13:00N 49°31' W 000°18'917.9
2018-Feb-16 12:30N 49°39' W 000°22'917.7
2018-Feb-16 12:01N 49°47' W 000°27'917.6
2018-Feb-16 11:30N 49°56' W 000°31'918.0
2018-Feb-16 11:01N 50°04' W 000°35'2418.7
2018-Feb-16 09:44N 50°26' W 000°50'518.9
2018-Feb-16 09:29N 50°31' W 000°53'918.4
2018-Feb-16 09:00N 50°39' W 000°58'917.6
2018-Feb-16 08:31N 50°46' W 001°06'2 4.6
2018-Feb-16 08:00N 50°49' W 001°06'0 0.0
2018-Feb-16 07:30N 50°49' W 001°06'0 0.0
2018-Feb-16 07:01N 50°49' W 001°06'1 1.6
2018-Feb-16 06:30N 50°48' W 001°07'713.6
2018-Feb-16 06:00N 50°43' W 001°00'714.0
2018-Feb-16 05:30N 50°36' W 000°57'612.7
2018-Feb-16 05:00N 50°30' W 000°54'2810.8
2018-Feb-16 02:26N 50°04' W 000°39'510.7
2018-Feb-16 02:00N 49°60' W 000°37'510.8
2018-Feb-16 01:30N 49°55' W 000°34'510.9
2018-Feb-16 01:00N 49°50' W 000°31'510.8
2018-Feb-16 00:30N 49°45' W 000°28'611.4
2018-Feb-16 00:00N 49°39' W 000°26'511.1
2018-Feb-15 23:30N 49°34' W 000°23'510.8
2018-Feb-15 23:00N 49°29' W 000°19'510.7
2018-Feb-15 22:30N 49°24' W 000°16'510.1
2018-Feb-15 22:00N 49°19' W 000°15'2 4.0
2018-Feb-15 21:30N 49°17' W 000°15'0 0.0
2018-Feb-15 21:00N 49°17' W 000°15'0 0.0
2018-Feb-15 20:30N 49°17' W 000°15'3 5.9
2018-Feb-15 20:01N 49°20' W 000°14'918.3
2018-Feb-15 19:31N 49°29' W 000°18'918.4
2018-Feb-15 19:01N 49°37' W 000°25'918.5
2018-Feb-15 18:30N 49°46' W 000°30'918.3
2018-Feb-15 18:00N 49°54' W 000°37'918.2
2018-Feb-15 17:31N 50°03' W 000°41'3118.2
2018-Feb-15 15:47N 50°32' W 000°57'618.4
2018-Feb-15 15:29N 50°38' W 000°59'817.7
2018-Feb-15 15:00N 50°45' W 001°05'4 7.1
2018-Feb-15 14:30N 50°49' W 001°06'0 0.0
2018-Feb-15 14:00N 50°49' W 001°06'0 0.0
2018-Feb-15 13:30N 50°49' W 001°06'0 0.2
2018-Feb-15 13:00N 50°49' W 001°06'612.6
2018-Feb-15 12:31N 50°43' W 001°03'918.7
2018-Feb-15 12:00N 50°34' W 000°57'2419.6
2018-Feb-15 10:45N 50°11' W 000°44'619.3
2018-Feb-15 10:27N 50°06' W 000°40'819.1
2018-Feb-15 10:00N 49°58' W 000°35'1019.1
2018-Feb-15 09:29N 49°49' W 000°30'919.2
2018-Feb-15 09:00N 49°40' W 000°25'1019.4
2018-Feb-15 08:30N 49°31' W 000°19'917.4
2018-Feb-15 08:01N 49°23' W 000°15'510.5
2018-Feb-15 07:30N 49°17' W 000°15'  
Track history (hours):
 
Tides and Currents Weather Stations Pressure Air Temp Water Temp Dewpoint Dewpoint Depression Visibility Wind Speed Wind Dir Waves Ship Positions

Normandie

Operator: Brittany Ferries

Last reported at 2018-Feb-25 07:30 UTC. Time now 2018-Feb-25 07:50 UTC.
Position N 49°18' W 000°15'.

Length 161 m; beam 27 m.

Type: Passenger vessel. MMSI: 227273000.

Date/timePositionNaut miles runAvg speedWind from/ knotsBaromVisibWave heightAir tempDewpointWater temp
2018-Feb-25 07:30N 49°18' W 000°15'1 1.3
2018-Feb-25 07:00N 49°17' W 000°15'0 0.0
2018-Feb-25 06:30N 49°17' W 000°15'0 0.0
2018-Feb-25 06:00N 49°17' W 000°15'0 0.2
2018-Feb-25 05:30N 49°17' W 000°15'713.4
2018-Feb-25 05:00N 49°24' W 000°15'715.0
2018-Feb-25 04:31N 49°31' W 000°19'714.9
2018-Feb-25 04:01N 49°38' W 000°23'815.0
2018-Feb-25 03:30N 49°45' W 000°27'611.6
2018-Feb-25 03:00N 49°51' W 000°30'713.0
2018-Feb-25 02:30N 49°57' W 000°33'815.5
2018-Feb-25 02:00N 50°04' W 000°38'3614.9
2018-Feb-24 23:37N 50°37' W 000°58'214.7
2018-Feb-24 23:30N 50°39' W 000°58'713.7
2018-Feb-24 23:00N 50°44' W 001°05'4 8.9
2018-Feb-24 22:31N 50°49' W 001°06'0 0.0
2018-Feb-24 22:00N 50°49' W 001°06'0 0.0
2018-Feb-24 21:30N 50°49' W 001°06'0 0.2
2018-Feb-24 21:00N 50°49' W 001°06'510.3
2018-Feb-24 20:31N 50°44' W 001°04'917.4
2018-Feb-24 20:00N 50°36' W 000°57'1018.5
2018-Feb-24 19:28N 50°27' W 000°51'2418.3
2018-Feb-24 18:09N 50°04' W 000°41'318.9
2018-Feb-24 18:00N 50°01' W 000°39'1019.1
2018-Feb-24 17:30N 49°52' W 000°33'919.0
2018-Feb-24 17:00N 49°43' W 000°28'918.7
2018-Feb-24 16:30N 49°35' W 000°22'918.8
2018-Feb-24 16:00N 49°26' W 000°17'917.1
2018-Feb-24 15:30N 49°18' W 000°15'0 0.5
2018-Feb-24 15:00N 49°17' W 000°15'0 0.0
2018-Feb-24 14:31N 49°17' W 000°15'0 0.0
2018-Feb-24 14:00N 49°17' W 000°15'4 8.8
2018-Feb-24 13:31N 49°22' W 000°14'918.0
2018-Feb-24 13:01N 49°31' W 000°16'918.1
2018-Feb-24 12:30N 49°39' W 000°22'918.2
2018-Feb-24 12:00N 49°48' W 000°26'918.5
2018-Feb-24 11:30N 49°56' W 000°31'918.7
2018-Feb-24 11:00N 50°05' W 000°38'3018.5
2018-Feb-24 09:23N 50°33' W 000°54'718.7
2018-Feb-24 09:01N 50°40' W 000°58'917.1
2018-Feb-24 08:30N 50°46' W 001°06'2 4.4
2018-Feb-24 08:00N 50°49' W 001°06'0 0.0
2018-Feb-24 07:31N 50°49' W 001°06'0 0.0
2018-Feb-24 07:00N 50°49' W 001°06'0 0.2
2018-Feb-24 06:30N 50°49' W 001°06'4 8.8
2018-Feb-24 06:01N 50°44' W 001°04'817.0
2018-Feb-24 05:31N 50°37' W 000°58'714.5
2018-Feb-24 05:00N 50°30' W 000°55'3111.5
2018-Feb-24 02:17N 50°01' W 000°37'310.3
2018-Feb-24 02:00N 49°58' W 000°35'510.7
2018-Feb-24 01:30N 49°53' W 000°32'510.6
2018-Feb-24 01:00N 49°48' W 000°30'510.6
2018-Feb-24 00:30N 49°43' W 000°28'511.0
2018-Feb-24 00:00N 49°37' W 000°26'511.0
2018-Feb-23 23:30N 49°32' W 000°24'510.3
2018-Feb-23 23:00N 49°28' W 000°19'611.4
2018-Feb-23 22:30N 49°23' W 000°16'510.8
2018-Feb-23 22:00N 49°17' W 000°15'0 0.1
2018-Feb-23 21:30N 49°17' W 000°15'0 0.0
2018-Feb-23 21:00N 49°17' W 000°15'0 0.0
2018-Feb-23 20:30N 49°17' W 000°15'0 0.0
2018-Feb-23 20:00N 49°17' W 000°15'0 0.0
2018-Feb-23 19:30N 49°17' W 000°15'0 0.0
2018-Feb-23 19:00N 49°17' W 000°15'0 0.0
2018-Feb-23 18:30N 49°17' W 000°15'0 0.0
2018-Feb-23 18:00N 49°17' W 000°15'0 0.0
2018-Feb-23 17:30N 49°17' W 000°15'0 0.0
2018-Feb-23 17:00N 49°17' W 000°15'0 0.0
2018-Feb-23 16:30N 49°17' W 000°15'0 0.0
2018-Feb-23 16:01N 49°17' W 000°15'0 0.0
2018-Feb-23 15:30N 49°17' W 000°15'0 0.0
2018-Feb-23 15:01N 49°17' W 000°15'0 0.0
2018-Feb-23 14:30N 49°17' W 000°15'0 0.0
2018-Feb-23 14:01N 49°17' W 000°15'5 9.6
2018-Feb-23 13:30N 49°22' W 000°14'918.2
2018-Feb-23 13:00N 49°31' W 000°18'918.2
2018-Feb-23 12:31N 49°39' W 000°23'918.3
2018-Feb-23 12:00N 49°48' W 000°27'918.2
2018-Feb-23 11:30N 49°57' W 000°32'918.4
2018-Feb-23 11:00N 50°05' W 000°37'3018.4
2018-Feb-23 09:23N 50°33' W 000°55'718.6
2018-Feb-23 09:00N 50°40' W 000°58'816.7
2018-Feb-23 08:30N 50°46' W 001°06'2 4.5
2018-Feb-23 08:00N 50°49' W 001°06'0 0.0
2018-Feb-23 07:30N 50°49' W 001°06'0 0.0
2018-Feb-23 07:01N 50°49' W 001°06'0 0.2
2018-Feb-23 06:30N 50°49' W 001°06'510.2
2018-Feb-23 06:00N 50°44' W 001°03'816.7
2018-Feb-23 05:30N 50°36' W 000°58'715.0
2018-Feb-23 05:01N 50°29' W 000°56'2415.3
2018-Feb-23 03:27N 50°06' W 000°43'1115.2
2018-Feb-23 02:43N 49°57' W 000°34'314.9
2018-Feb-23 02:30N 49°54' W 000°31'611.0
2018-Feb-23 02:00N 49°49' W 000°28'611.1
2018-Feb-23 01:30N 49°44' W 000°25'611.3
2018-Feb-23 01:00N 49°39' W 000°23'611.9
2018-Feb-23 00:30N 49°33' W 000°21'611.4
2018-Feb-23 00:00N 49°27' W 000°18'611.3
2018-Feb-22 23:30N 49°22' W 000°15'5 9.2
2018-Feb-22 23:00N 49°17' W 000°15'0 0.0
2018-Feb-22 22:30N 49°17' W 000°15'0 0.0
2018-Feb-22 22:00N 49°17' W 000°15'0 0.3
2018-Feb-22 21:30N 49°17' W 000°15'816.4
2018-Feb-22 21:01N 49°25' W 000°16'1019.0
2018-Feb-22 20:30N 49°34' W 000°21'918.9
2018-Feb-22 20:00N 49°43' W 000°27'918.6
2018-Feb-22 19:30N 49°52' W 000°32'918.9
2018-Feb-22 19:00N 50°01' W 000°37'3419.2
2018-Feb-22 17:14N 50°33' W 000°56'419.4
2018-Feb-22 17:00N 50°37' W 000°58'917.7
2018-Feb-22 16:30N 50°44' W 001°05'4 8.5
2018-Feb-22 16:00N 50°49' W 001°06'0 0.0
2018-Feb-22 15:31N 50°49' W 001°06'0 0.0
2018-Feb-22 15:01N 50°49' W 001°06'2 4.2
2018-Feb-22 14:31N 50°47' W 001°06'917.3
2018-Feb-22 14:00N 50°39' W 000°59'3419.1
2018-Feb-22 12:15N 50°08' W 000°38'519.2
2018-Feb-22 12:01N 50°04' W 000°36'919.0
2018-Feb-22 11:31N 49°55' W 000°32'1019.5
2018-Feb-22 11:00N 49°45' W 000°27'1019.3
2018-Feb-22 10:30N 49°36' W 000°22'1019.2
2018-Feb-22 10:00N 49°27' W 000°17'917.8
2018-Feb-22 09:30N 49°19' W 000°15'1 2.5
2018-Feb-22 09:00N 49°17' W 000°15'0 0.0
2018-Feb-22 08:30N 49°17' W 000°15'0 0.0
2018-Feb-22 08:00N 49°17' W 000°15'0 0.0
2018-Feb-22 07:30N 49°17' W 000°15'0 0.1
2018-Feb-22 07:00N 49°17' W 000°15'0 0.0
2018-Feb-22 06:30N 49°17' W 000°15'0 0.0
2018-Feb-22 06:00N 49°17' W 000°15'0 0.3
2018-Feb-22 05:31N 49°17' W 000°15'713.5
2018-Feb-22 05:00N 49°24' W 000°16'815.0
2018-Feb-22 04:30N 49°31' W 000°21'715.0
2018-Feb-22 04:00N 49°38' W 000°25'714.6
2018-Feb-22 03:30N 49°45' W 000°28'714.7
2018-Feb-22 03:00N 49°52' W 000°31'714.7
2018-Feb-22 02:30N 49°59' W 000°34'4115.2
2018-Feb-21 23:49N 50°37' W 000°58'414.5
2018-Feb-21 23:30N 50°41' W 000°58'815.3
2018-Feb-21 23:00N 50°47' W 001°06'2 3.4
2018-Feb-21 22:31N 50°49' W 001°06'0 0.0
2018-Feb-21 22:00N 50°49' W 001°06'0 0.0
2018-Feb-21 21:30N 50°49' W 001°06'1 1.9
2018-Feb-21 21:00N 50°48' W 001°07'714.5
2018-Feb-21 20:31N 50°43' W 000°59'917.8
2018-Feb-21 20:00N 50°34' W 000°57'3519.0
2018-Feb-21 18:10N 50°01' W 000°40'319.6
2018-Feb-21 18:00N 49°58' W 000°38'1019.7
2018-Feb-21 17:30N 49°49' W 000°30'1019.3
2018-Feb-21 17:00N 49°40' W 000°25'918.9
2018-Feb-21 16:30N 49°31' W 000°20'918.8
2018-Feb-21 16:00N 49°22' W 000°15'5 9.9
2018-Feb-21 15:31N 49°17' W 000°15'0 0.0
2018-Feb-21 15:01N 49°17' W 000°15'0 0.0
2018-Feb-21 14:30N 49°17' W 000°15'0 0.0
2018-Feb-21 14:00N 49°17' W 000°15'1 1.5
2018-Feb-21 13:30N 49°18' W 000°15'1019.6
2018-Feb-21 13:00N 49°28' W 000°14'1019.1
2018-Feb-21 12:31N 49°37' W 000°20'918.8
2018-Feb-21 12:01N 49°45' W 000°25'1019.1
2018-Feb-21 11:30N 49°54' W 000°31'1019.0
2018-Feb-21 11:00N 50°03' W 000°37'3219.2
2018-Feb-21 09:21N 50°32' W 000°57'618.1
2018-Feb-21 09:00N 50°38' W 000°58'815.9
2018-Feb-21 08:30N 50°45' W 001°05'4 7.7
2018-Feb-21 08:00N 50°49' W 001°06'0 0.0
2018-Feb-21 07:30N 50°49' W 001°06'0 0.0
2018-Feb-21 07:00N 50°49' W 001°06'0 0.5
2018-Feb-21 06:31N 50°49' W 001°06'510.7
2018-Feb-21 06:00N 50°44' W 001°03'715.0
2018-Feb-21 05:30N 50°37' W 000°58'814.6
2018-Feb-21 04:57N 50°29' W 000°55'2014.4
2018-Feb-21 03:36N 50°10' W 000°47'613.6
2018-Feb-21 03:09N 50°06' W 000°41'210.7
2018-Feb-21 03:00N 50°04' W 000°40'510.7
2018-Feb-21 02:30N 49°60' W 000°36'510.4
2018-Feb-21 02:00N 49°55' W 000°33'510.3
2018-Feb-21 01:30N 49°50' W 000°30'510.1
2018-Feb-21 01:00N 49°45' W 000°28'5 9.9
2018-Feb-21 00:30N 49°40' W 000°25'5 9.9
2018-Feb-21 00:00N 49°36' W 000°23'5 9.6
2018-Feb-20 23:30N 49°31' W 000°20'5 9.5
2018-Feb-20 23:00N 49°27' W 000°18'5 9.3
2018-Feb-20 22:31N 49°22' W 000°15'5 9.7
2018-Feb-20 22:00N 49°18' W 000°15'0 0.4
2018-Feb-20 21:30N 49°17' W 000°15'0 0.0
2018-Feb-20 21:00N 49°17' W 000°15'0 0.0
2018-Feb-20 20:30N 49°17' W 000°15'510.4
2018-Feb-20 20:00N 49°22' W 000°14'1019.3
2018-Feb-20 19:31N 49°31' W 000°20'1019.5
2018-Feb-20 19:01N 49°40' W 000°25'1019.3
2018-Feb-20 18:31N 49°49' W 000°31'918.6
2018-Feb-20 18:00N 49°58' W 000°35'917.9
2018-Feb-20 17:30N 50°07' W 000°39'2717.9
2018-Feb-20 15:59N 50°32' W 000°54'817.8
2018-Feb-20 15:30N 50°40' W 000°60'816.4
2018-Feb-20 15:01N 50°47' W 001°06'2 3.3
2018-Feb-20 14:30N 50°49' W 001°06'0 0.0
2018-Feb-20 14:00N 50°49' W 001°06'0 0.0
2018-Feb-20 13:31N 50°49' W 001°06'1 1.7
2018-Feb-20 13:01N 50°48' W 001°07'815.3
2018-Feb-20 12:30N 50°42' W 001°01'918.8
2018-Feb-20 12:01N 50°33' W 000°55'2618.4
2018-Feb-20 10:34N 50°08' W 000°40'118.4
2018-Feb-20 10:30N 50°07' W 000°39'917.9
2018-Feb-20 10:01N 49°59' W 000°35'918.3
2018-Feb-20 09:30N 49°50' W 000°32'918.4
2018-Feb-20 09:00N 49°41' W 000°28'918.9
2018-Feb-20 08:31N 49°32' W 000°24'1019.5
2018-Feb-20 08:00N 49°24' W 000°15'612.9
2018-Feb-20 07:31N 49°17' W 000°15'0 0.1
2018-Feb-20 07:01N 49°17' W 000°15'0 0.0
2018-Feb-20 06:31N 49°17' W 000°15'0 0.0
2018-Feb-20 06:00N 49°17' W 000°15'0 0.6
2018-Feb-20 05:31N 49°18' W 000°15'714.9
2018-Feb-20 05:01N 49°25' W 000°16'815.7
2018-Feb-20 04:31N 49°33' W 000°19'815.2
2018-Feb-20 04:00N 49°39' W 000°25'815.3
2018-Feb-20 03:30N 49°46' W 000°29'815.1
2018-Feb-20 03:00N 49°53' W 000°34'714.7
2018-Feb-20 02:31N 50°00' W 000°38'815.1
2018-Feb-20 02:00N 50°07' W 000°42'2715.2
2018-Feb-20 00:12N 50°33' W 000°55'315.3
2018-Feb-20 00:00N 50°36' W 000°57'714.7
2018-Feb-19 23:30N 50°43' W 001°02'612.3
2018-Feb-19 23:00N 50°48' W 001°07'1 1.7
2018-Feb-19 22:31N 50°49' W 001°06'0 0.0
2018-Feb-19 22:00N 50°49' W 001°06'0 0.0
2018-Feb-19 21:31N 50°49' W 001°06'1 2.2
2018-Feb-19 21:01N 50°48' W 001°07'611.9
2018-Feb-19 20:30N 50°43' W 001°01'816.5
2018-Feb-19 20:00N 50°36' W 000°55'918.0
2018-Feb-19 19:30N 50°27' W 000°51'2018.0
2018-Feb-19 18:23N 50°08' W 000°42'718.4
2018-Feb-19 18:00N 50°01' W 000°38'918.7
2018-Feb-19 17:30N 49°53' W 000°33'918.5
2018-Feb-19 17:00N 49°44' W 000°28'918.8
2018-Feb-19 16:30N 49°35' W 000°23'918.9
2018-Feb-19 16:00N 49°27' W 000°17'917.5
2018-Feb-19 15:30N 49°18' W 000°15'1 1.2
2018-Feb-19 15:00N 49°17' W 000°15'0 0.0
2018-Feb-19 14:30N 49°17' W 000°15'0 0.0
2018-Feb-19 14:00N 49°17' W 000°15'4 9.0
2018-Feb-19 13:30N 49°22' W 000°14'918.2
2018-Feb-19 13:00N 49°30' W 000°19'918.4
2018-Feb-19 12:31N 49°39' W 000°23'816.8
2018-Feb-19 12:01N 49°47' W 000°27'917.1
2018-Feb-19 11:30N 49°55' W 000°32'918.3
2018-Feb-19 11:00N 50°04' W 000°37'2518.9
2018-Feb-19 09:40N 50°27' W 000°53'319.0
2018-Feb-19 09:30N 50°30' W 000°54'918.2
2018-Feb-19 09:01N 50°39' W 000°58'917.2
2018-Feb-19 08:30N 50°46' W 001°05'3 5.5
2018-Feb-19 08:00N 50°49' W 001°06'0 0.0
2018-Feb-19 07:30N 50°49' W 001°06'0 0.0
2018-Feb-19 07:00N 50°49' W 001°06'1 1.7
2018-Feb-19 06:30N 50°48' W 001°07'713.2
2018-Feb-19 06:01N 50°43' W 001°00'713.1
2018-Feb-19 05:30N 50°37' W 000°58'612.2
2018-Feb-19 05:00N 50°31' W 000°56'2311.5
2018-Feb-19 02:58N 50°08' W 000°46'811.8
2018-Feb-19 02:17N 50°01' W 000°39'311.6
2018-Feb-19 02:00N 49°58' W 000°37'611.5
2018-Feb-19 01:30N 49°53' W 000°34'611.2
2018-Feb-19 01:00N 49°48' W 000°30'511.0
2018-Feb-19 00:30N 49°43' W 000°27'611.1
2018-Feb-19 00:00N 49°38' W 000°23'611.3
2018-Feb-18 23:30N 49°33' W 000°20'510.9
2018-Feb-18 23:00N 49°27' W 000°18'510.8
2018-Feb-18 22:30N 49°22' W 000°15'5 9.8
2018-Feb-18 22:00N 49°17' W 000°15'0 0.1
2018-Feb-18 21:30N 49°17' W 000°15'0 0.0
2018-Feb-18 21:00N 49°17' W 000°15'0 0.0
2018-Feb-18 20:30N 49°17' W 000°15'5 9.6
2018-Feb-18 20:00N 49°22' W 000°14'918.5
2018-Feb-18 19:31N 49°31' W 000°19'918.1
2018-Feb-18 19:00N 49°39' W 000°25'918.1
2018-Feb-18 18:30N 49°47' W 000°31'917.9
2018-Feb-18 18:01N 49°56' W 000°36'917.6
2018-Feb-18 17:30N 50°04' W 000°40'3017.8
2018-Feb-18 15:49N 50°33' W 000°56'618.1
2018-Feb-18 15:29N 50°38' W 000°59'817.5
2018-Feb-18 15:01N 50°45' W 001°05'3 6.7
2018-Feb-18 14:30N 50°49' W 001°06'0 0.0
2018-Feb-18 14:00N 50°49' W 001°06'0 0.0
2018-Feb-18 13:30N 50°49' W 001°06'2 3.5
2018-Feb-18 13:01N 50°47' W 001°06'917.6
2018-Feb-18 12:30N 50°39' W 001°00'1019.9
2018-Feb-18 12:01N 50°30' W 000°54'3019.7
2018-Feb-18 10:28N 50°02' W 000°36'919.2
2018-Feb-18 10:00N 49°53' W 000°32'1019.1
2018-Feb-18 09:31N 49°45' W 000°26'1019.1
2018-Feb-18 09:00N 49°36' W 000°20'1019.4
2018-Feb-18 08:31N 49°26' W 000°17'917.3
2018-Feb-18 08:01N 49°18' W 000°15'1 1.0
2018-Feb-18 07:31N 49°17' W 000°15'0 0.0
2018-Feb-18 07:01N 49°17' W 000°15'0 0.0
2018-Feb-18 06:31N 49°17' W 000°15'0 0.0
2018-Feb-18 06:00N 49°17' W 000°15'1 1.2
2018-Feb-18 05:31N 49°18' W 000°15'815.5
2018-Feb-18 05:00N 49°26' W 000°15'816.6
2018-Feb-18 04:30N 49°33' W 000°20'815.6
2018-Feb-18 04:00N 49°40' W 000°25'714.8
2018-Feb-18 03:30N 49°47' W 000°30'714.6
2018-Feb-18 03:00N 49°54' W 000°35'714.3
2018-Feb-18 02:31N 50°00' W 000°39'1114.8
2018-Feb-18 01:46N 50°11' W 000°42'2315.1
2018-Feb-18 00:13N 50°33' W 000°55'415.0
2018-Feb-17 23:58N 50°36' W 000°57'714.6
2018-Feb-17 23:30N 50°43' W 001°01'612.6
2018-Feb-17 23:01N 50°48' W 001°07'1 2.1
2018-Feb-17 22:30N 50°49' W 001°06'0 0.0
2018-Feb-17 22:01N 50°49' W 001°06'0 0.0
2018-Feb-17 21:30N 50°49' W 001°06'1 2.5
2018-Feb-17 21:00N 50°48' W 001°07'714.2
2018-Feb-17 20:30N 50°42' W 001°00'1019.1
2018-Feb-17 20:00N 50°33' W 000°57'2819.1
2018-Feb-17 18:32N 50°06' W 000°43'418.6
2018-Feb-17 18:20N 50°02' W 000°40'618.8
2018-Feb-17 18:01N 49°57' W 000°37'918.8
2018-Feb-17 17:31N 49°48' W 000°32'1019.1
2018-Feb-17 17:01N 49°39' W 000°27'1019.1
2018-Feb-17 16:30N 49°30' W 000°20'918.8
2018-Feb-17 16:00N 49°22' W 000°15'4 8.7
2018-Feb-17 15:30N 49°17' W 000°15'0 0.0
2018-Feb-17 15:00N 49°17' W 000°15'0 0.0
2018-Feb-17 14:30N 49°17' W 000°15'0 0.0
2018-Feb-17 14:00N 49°17' W 000°15'510.7
2018-Feb-17 13:30N 49°23' W 000°14'1019.5
2018-Feb-17 13:00N 49°31' W 000°21'1019.9
2018-Feb-17 12:30N 49°41' W 000°24'1020.2
2018-Feb-17 12:00N 49°51' W 000°29'1020.2
2018-Feb-17 11:30N 50°00' W 000°34'2420.2
2018-Feb-17 10:19N 50°23' W 000°46'720.4
2018-Feb-17 09:59N 50°29' W 000°51'1020.3
2018-Feb-17 09:30N 50°38' W 000°58'918.0
2018-Feb-17 09:00N 50°45' W 001°05'3 6.8
2018-Feb-17 08:30N 50°49' W 001°06'0 0.0
2018-Feb-17 08:00N 50°49' W 001°06'0 0.0
2018-Feb-17 07:30N 50°49' W 001°06'0 0.0
2018-Feb-17 07:00N 50°49' W 001°06'1 1.6
2018-Feb-17 06:30N 50°48' W 001°07'713.6
2018-Feb-17 06:01N 50°43' W 001°00'713.3
2018-Feb-17 05:30N 50°37' W 000°58'510.8
2018-Feb-17 05:00N 50°31' W 000°55'3411.0
2018-Feb-17 01:57N 49°59' W 000°40'511.0
2018-Feb-17 01:31N 49°55' W 000°37'611.9
2018-Feb-17 01:00N 49°49' W 000°34'611.6
2018-Feb-17 00:30N 49°44' W 000°30'611.3
2018-Feb-17 00:01N 49°39' W 000°26'611.2
2018-Feb-16 23:30N 49°34' W 000°22'611.2
2018-Feb-16 23:01N 49°29' W 000°19'611.0
2018-Feb-16 22:31N 49°24' W 000°16'611.3
2018-Feb-16 22:00N 49°18' W 000°15'1 1.2
2018-Feb-16 21:31N 49°17' W 000°15'0 0.0
2018-Feb-16 21:01N 49°17' W 000°15'0 0.0
2018-Feb-16 20:31N 49°17' W 000°15'0 0.0
2018-Feb-16 20:01N 49°17' W 000°15'0 0.0
2018-Feb-16 19:31N 49°17' W 000°15'0 0.0
2018-Feb-16 19:01N 49°17' W 000°15'0 0.0
2018-Feb-16 18:31N 49°17' W 000°15'0 0.0
2018-Feb-16 18:01N 49°17' W 000°15'0 0.0
2018-Feb-16 17:30N 49°17' W 000°15'0 0.0
2018-Feb-16 17:00N 49°17' W 000°15'0 0.0
2018-Feb-16 16:30N 49°17' W 000°15'0 0.0
2018-Feb-16 16:00N 49°17' W 000°15'0 0.0
2018-Feb-16 15:31N 49°17' W 000°15'0 0.0
2018-Feb-16 15:00N 49°17' W 000°15'0 0.0
2018-Feb-16 14:31N 49°17' W 000°15'0 0.0
2018-Feb-16 14:00N 49°17' W 000°15'5 9.7
2018-Feb-16 13:31N 49°22' W 000°14'917.8
2018-Feb-16 13:00N 49°31' W 000°18'917.9
2018-Feb-16 12:30N 49°39' W 000°22'917.7
2018-Feb-16 12:01N 49°47' W 000°27'917.6
2018-Feb-16 11:30N 49°56' W 000°31'918.0
2018-Feb-16 11:01N 50°04' W 000°35'2418.7
2018-Feb-16 09:44N 50°26' W 000°50'518.9
2018-Feb-16 09:29N 50°31' W 000°53'918.4
2018-Feb-16 09:00N 50°39' W 000°58'917.6
2018-Feb-16 08:31N 50°46' W 001°06'2 4.6
2018-Feb-16 08:00N 50°49' W 001°06'0 0.0
2018-Feb-16 07:30N 50°49' W 001°06'0 0.0
2018-Feb-16 07:01N 50°49' W 001°06'1 1.6
2018-Feb-16 06:30N 50°48' W 001°07'713.6
2018-Feb-16 06:00N 50°43' W 001°00'714.0
2018-Feb-16 05:30N 50°36' W 000°57'612.7
2018-Feb-16 05:00N 50°30' W 000°54'2810.8
2018-Feb-16 02:26N 50°04' W 000°39'510.7
2018-Feb-16 02:00N 49°60' W 000°37'510.8
2018-Feb-16 01:30N 49°55' W 000°34'510.9
2018-Feb-16 01:00N 49°50' W 000°31'510.8
2018-Feb-16 00:30N 49°45' W 000°28'611.4
2018-Feb-16 00:00N 49°39' W 000°26'511.1
2018-Feb-15 23:30N 49°34' W 000°23'510.8
2018-Feb-15 23:00N 49°29' W 000°19'510.7
2018-Feb-15 22:30N 49°24' W 000°16'510.1
2018-Feb-15 22:00N 49°19' W 000°15'2 4.0
2018-Feb-15 21:30N 49°17' W 000°15'0 0.0
2018-Feb-15 21:00N 49°17' W 000°15'0 0.0
2018-Feb-15 20:30N 49°17' W 000°15'3 5.9
2018-Feb-15 20:01N 49°20' W 000°14'918.3
2018-Feb-15 19:31N 49°29' W 000°18'918.4
2018-Feb-15 19:01N 49°37' W 000°25'918.5
2018-Feb-15 18:30N 49°46' W 000°30'918.3
2018-Feb-15 18:00N 49°54' W 000°37'918.2
2018-Feb-15 17:31N 50°03' W 000°41'3118.2
2018-Feb-15 15:47N 50°32' W 000°57'618.4
2018-Feb-15 15:29N 50°38' W 000°59'817.7
2018-Feb-15 15:00N 50°45' W 001°05'4 7.1
2018-Feb-15 14:30N 50°49' W 001°06'0 0.0
2018-Feb-15 14:00N 50°49' W 001°06'0 0.0
2018-Feb-15 13:30N 50°49' W 001°06'0 0.2
2018-Feb-15 13:00N 50°49' W 001°06'612.6
2018-Feb-15 12:31N 50°43' W 001°03'918.7
2018-Feb-15 12:00N 50°34' W 000°57'2419.6
2018-Feb-15 10:45N 50°11' W 000°44'619.3
2018-Feb-15 10:27N 50°06' W 000°40'819.1
2018-Feb-15 10:00N 49°58' W 000°35'1019.1
2018-Feb-15 09:29N 49°49' W 000°30'919.2
2018-Feb-15 09:00N 49°40' W 000°25'1019.4
2018-Feb-15 08:30N 49°31' W 000°19'917.4
2018-Feb-15 08:01N 49°23' W 000°15'510.5
2018-Feb-15 07:30N 49°17' W 000°15'  

Dump ship's entire track history